Time;durP1;ratioP1;P1;durP2;ratioP2;P2;SDS_P1;SDS_P2;PMS_P1;PMS_P2;Temp;Humidity;BMP_temperature;BMP_pressure;BME280_temperature;BME280_humidity;BME280_pressure;Samples;Min_cycle;Max_cycle;Signal;HPM_P1;HPM_P2
2021/10/09 00:02:43;;;;;;;36.40;25.83;;;;;;;5.39;84.93;98826.38;6264701;28;20211;-71
2021/10/09 00:05:45;;;;;;;41.93;28.80;;;;;;;5.40;84.43;98834.13;6262169;28;20274;-72
2021/10/09 00:08:47;;;;;;;46.77;32.17;;;;;;;5.47;84.75;98827.75;6255042;28;20246;-72
2021/10/09 00:11:49;;;;;;;42.20;31.07;;;;;;;5.57;85.15;98836.06;6251086;28;20195;-72
2021/10/09 00:14:51;;;;;;;42.47;30.53;;;;;;;5.64;85.04;98839.28;6267097;28;20206;-72
2021/10/09 00:17:53;;;;;;;38.43;27.13;;;;;;;5.67;84.58;98833.94;6256271;28;20283;-72
2021/10/09 00:20:54;;;;;;;45.23;31.53;;;;;;;5.67;85.07;98834.78;6247292;28;20198;-72
2021/10/09 00:23:58;;;;;;;46.57;33.00;;;;;;;5.66;85.18;98832.22;6251559;28;20200;-72
2021/10/09 00:27:04;;;;;;;49.93;30.40;;;;;;;5.63;85.35;98835.81;6236516;28;20207;-72
2021/10/09 00:30:07;;;;;;;42.27;28.70;;;;;;;5.61;84.88;98828.94;6259080;28;20202;-72
2021/10/09 00:33:08;;;;;;;46.13;32.73;;;;;;;5.56;84.89;98831.75;6270089;28;20198;-72
2021/10/09 00:36:10;;;;;;;42.57;28.47;;;;;;;5.54;85.80;98826.56;6268333;28;20230;-72
2021/10/09 00:39:12;;;;;;;40.87;28.43;;;;;;;5.46;84.87;98825.19;6268114;28;20195;-71
2021/10/09 00:42:14;;;;;;;41.87;27.77;;;;;;;5.44;85.68;98830.50;6266876;28;20239;-72
2021/10/09 00:45:16;;;;;;;36.90;27.13;;;;;;;5.42;85.41;98823.59;6269750;28;20199;-72
2021/10/09 00:48:18;;;;;;;40.67;28.30;;;;;;;5.41;86.07;98821.91;6267733;28;20218;-72
2021/10/09 00:51:20;;;;;;;35.93;24.50;;;;;;;5.40;85.26;98818.44;6263135;28;20242;-72
2021/10/09 00:54:23;;;;;;;40.47;28.63;;;;;;;5.41;85.20;98816.66;6261549;28;20188;-71
2021/10/09 00:57:27;;;;;;;35.10;25.97;;;;;;;5.42;85.72;98815.75;6248151;28;20249;-72
2021/10/09 01:00:29;;;;;;;42.27;27.43;;;;;;;5.42;84.99;98815.75;6265590;28;20599;-72
2021/10/09 01:03:32;;;;;;;46.33;32.00;;;;;;;5.43;85.24;98812.22;6258157;28;20627;-71
2021/10/09 01:06:34;;;;;;;51.10;34.87;;;;;;;5.42;84.85;98807.91;6250175;28;20191;-72
2021/10/09 01:09:36;;;;;;;44.27;31.27;;;;;;;5.45;84.83;98819.09;6268665;28;20728;-72
2021/10/09 01:12:39;;;;;;;44.00;30.33;;;;;;;5.40;85.22;98810.56;6267270;28;20555;-72
2021/10/09 01:15:44;;;;;;;40.27;27.40;;;;;;;5.36;84.70;98811.63;6267424;28;20360;-72
2021/10/09 01:18:54;;;;;;;41.33;30.53;;;;;;;5.37;84.64;98810.72;6267376;28;20190;-72
2021/10/09 01:21:56;;;;;;;41.83;28.73;;;;;;;5.34;85.18;98810.00;6243492;28;20223;-72
2021/10/09 01:25:01;;;;;;;40.93;29.30;;;;;;;5.29;85.41;98807.53;6252190;28;20199;-72
2021/10/09 01:28:03;;;;;;;38.67;25.90;;;;;;;5.31;85.20;98815.34;6253804;28;20598;-71
2021/10/09 01:31:06;;;;;;;48.30;31.63;;;;;;;5.22;84.73;98813.09;6245820;28;20615;-72
2021/10/09 01:34:08;;;;;;;45.57;30.37;;;;;;;5.10;85.77;98812.69;6268518;28;20188;-72
2021/10/09 01:37:11;;;;;;;39.87;28.83;;;;;;;5.03;85.72;98815.59;6267244;28;20348;-72
2021/10/09 01:40:16;;;;;;;37.77;26.37;;;;;;;4.97;85.07;98818.47;6266558;28;20198;-72
2021/10/09 01:43:22;;;;;;;42.77;28.47;;;;;;;4.96;85.33;98816.78;6266849;28;20223;-72
2021/10/09 01:46:24;;;;;;;44.57;30.50;;;;;;;4.93;85.24;98814.25;6267135;28;20199;-72
2021/10/09 01:49:28;;;;;;;42.83;28.47;;;;;;;4.89;85.24;98816.13;6259977;28;20203;-72
2021/10/09 01:52:32;;;;;;;43.10;26.67;;;;;;;4.86;85.51;98821.50;6266808;28;20194;-72
2021/10/09 01:55:36;;;;;;;40.70;27.57;;;;;;;4.85;85.41;98817.19;6258043;28;20311;-72
2021/10/09 01:58:40;;;;;;;43.10;28.67;;;;;;;4.85;85.11;98818.94;6265669;28;20600;-72
2021/10/09 02:01:47;;;;;;;37.60;24.97;;;;;;;4.82;85.09;98812.91;6253770;28;20235;-72
2021/10/09 02:04:49;;;;;;;40.60;27.77;;;;;;;4.82;85.66;98812.06;6267757;28;20257;-72
2021/10/09 02:07:52;;;;;;;35.80;22.37;;;;;;;4.81;85.46;98815.59;6271094;28;20227;-72
2021/10/09 02:14:06;;;;;;;31.57;23.60;;;;;;;4.75;85.78;98814.09;6271137;28;20194;-72
2021/10/09 02:24:22;;;;;;;30.77;21.83;;;;;;;4.62;85.54;98823.28;6219266;28;20236;-72
2021/10/09 02:27:24;;;;;;;36.10;23.17;;;;;;;4.57;85.10;98820.03;6215823;28;20197;-72
2021/10/09 02:30:26;;;;;;;34.03;23.07;;;;;;;4.47;84.76;98821.28;6272551;28;20183;-72
2021/10/09 02:33:28;;;;;;;34.37;24.13;;;;;;;4.40;84.61;98825.00;6272420;28;20617;-72
2021/10/09 02:36:34;;;;;;;34.03;23.83;;;;;;;4.37;85.21;98831.22;6269975;28;20207;-72
2021/10/09 02:39:36;;;;;;;38.07;24.80;;;;;;;4.35;84.87;98822.56;6270800;28;20203;-72
2021/10/09 02:42:40;;;;;;;29.93;21.80;;;;;;;4.37;85.59;98819.91;6271032;28;20218;-72
2021/10/09 02:45:43;;;;;;;30.17;21.23;;;;;;;4.38;85.14;98822.47;6259825;28;20191;-72
2021/10/09 02:48:45;;;;;;;35.30;22.97;;;;;;;4.44;85.09;98824.00;6252937;28;20200;-72
2021/10/09 02:51:47;;;;;;;33.00;22.13;;;;;;;4.47;85.07;98816.06;6266957;28;20746;-72
2021/10/09 02:54:49;;;;;;;29.33;21.50;;;;;;;4.50;84.98;98820.28;6266579;28;20699;-72
2021/10/09 02:57:52;;;;;;;33.70;22.73;;;;;;;4.56;85.11;98815.69;6251004;28;20202;-72
2021/10/09 03:00:54;;;;;;;34.47;20.80;;;;;;;4.60;84.94;98813.81;6267795;28;20252;-72
2021/10/09 03:03:56;;;;;;;29.40;21.10;;;;;;;4.66;84.68;98818.81;6260865;28;20208;-72
2021/10/09 03:07:02;;;;;;;31.93;20.93;;;;;;;4.70;84.81;98818.63;6256531;28;20730;-72
2021/10/09 03:10:07;;;;;;;34.50;23.60;;;;;;;4.74;84.66;98819.38;6274161;28;20204;-72
2021/10/09 03:13:09;;;;;;;35.33;22.17;;;;;;;4.72;84.85;98818.56;6263349;28;20198;-72
2021/10/09 03:16:14;;;;;;;26.37;17.63;;;;;;;4.63;84.77;98818.91;6270462;28;20202;-72
2021/10/09 03:19:17;;;;;;;25.07;17.07;;;;;;;4.57;85.08;98817.41;6243083;28;20196;-72
2021/10/09 03:22:19;;;;;;;31.33;20.00;;;;;;;4.51;84.71;98822.84;6252069;28;20219;-72
2021/10/09 03:25:21;;;;;;;27.77;19.87;;;;;;;4.48;85.48;98820.38;6253553;28;20757;-72
2021/10/09 03:28:23;;;;;;;26.70;19.83;;;;;;;4.44;85.17;98824.00;6269211;28;20207;-72
2021/10/09 03:31:26;;;;;;;31.83;21.97;;;;;;;4.43;85.61;98814.44;6253835;28;20200;-72
2021/10/09 03:34:32;;;;;;;29.53;18.83;;;;;;;4.44;84.66;98811.78;6276585;28;20202;-72
2021/10/09 03:37:36;;;;;;;27.53;18.60;;;;;;;4.51;84.80;98816.75;6277792;28;20318;-72
2021/10/09 03:40:41;;;;;;;30.30;19.93;;;;;;;4.57;85.46;98808.72;6260985;28;20202;-72
2021/10/09 03:43:44;;;;;;;27.60;19.07;;;;;;;4.63;85.10;98814.53;6259651;28;20225;-72
2021/10/09 03:53:36;;;;;;;29.47;17.67;;;;;;;4.65;85.04;98831.03;6217347;28;20201;-72
2021/10/09 03:56:39;;;;;;;27.77;19.03;;;;;;;4.68;85.01;98833.53;6201844;28;20203;-72
2021/10/09 03:59:41;;;;;;;25.87;17.77;;;;;;;4.68;85.34;98832.69;6217778;28;20215;-72
2021/10/09 04:02:45;;;;;;;28.07;18.80;;;;;;;4.70;85.03;98826.47;6198486;28;20766;-72
2021/10/09 04:05:48;;;;;;;29.03;18.30;;;;;;;4.74;85.02;98829.81;6217924;28;20208;-72
2021/10/09 04:08:50;;;;;;;26.67;17.70;;;;;;;4.78;84.71;98831.44;6217517;28;20236;-72
2021/10/09 04:11:52;;;;;;;26.73;18.37;;;;;;;4.76;84.79;98826.25;6217804;28;20208;-72
2021/10/09 04:14:54;;;;;;;25.33;16.33;;;;;;;4.78;85.13;98831.44;6214028;28;20204;-72
2021/10/09 04:17:57;;;;;;;26.93;17.70;;;;;;;4.80;84.68;98832.19;6201446;28;20204;-72
2021/10/09 04:21:02;;;;;;;22.90;15.50;;;;;;;4.83;84.45;98819.88;6201095;28;20298;-72
2021/10/09 04:24:05;;;;;;;23.70;15.60;;;;;;;4.86;85.58;98831.13;6215516;28;20209;-72
2021/10/09 04:27:07;;;;;;;21.03;14.90;;;;;;;4.87;85.10;98828.44;6249871;28;20203;-72
2021/10/09 04:30:10;;;;;;;20.47;14.43;;;;;;;4.90;84.99;98823.06;6259983;28;20702;-72
2021/10/09 04:33:13;;;;;;;24.97;15.30;;;;;;;4.92;85.04;98817.78;6246357;28;20651;-72
2021/10/09 04:36:16;;;;;;;19.73;14.23;;;;;;;4.94;85.63;98819.44;6257080;28;20668;-72
2021/10/09 04:39:20;;;;;;;15.87;11.83;;;;;;;4.94;84.54;98816.81;6279330;28;20211;-72
2021/10/09 04:42:22;;;;;;;21.00;13.53;;;;;;;4.97;85.09;98821.09;6247011;28;20314;-72
2021/10/09 04:45:24;;;;;;;18.60;12.70;;;;;;;4.96;85.08;98819.38;6277767;28;20741;-72
2021/10/09 04:48:27;;;;;;;18.07;13.17;;;;;;;4.99;85.23;98819.28;6252349;28;20668;-72
2021/10/09 04:51:30;;;;;;;20.13;12.03;;;;;;;5.00;84.64;98832.25;6267676;28;20209;-72
2021/10/09 04:54:33;;;;;;;20.20;12.43;;;;;;;4.98;85.65;98825.41;6266256;28;20232;-72
2021/10/09 04:57:35;;;;;;;14.87;10.50;;;;;;;4.96;85.70;98827.22;6249610;28;20206;-72
2021/10/09 05:00:38;;;;;;;17.50;12.13;;;;;;;4.97;85.46;98824.56;6280427;28;20353;-72
2021/10/09 05:03:40;;;;;;;14.43;10.73;;;;;;;4.95;85.08;98831.63;6259485;28;21543;-71
2021/10/09 05:06:43;;;;;;;15.20;9.80;;;;;;;4.95;85.29;98825.53;6246501;28;20203;-72
2021/10/09 05:09:47;;;;;;;14.93;10.67;;;;;;;4.94;85.35;98832.53;6242636;28;20306;-72
2021/10/09 05:12:50;;;;;;;13.57;9.00;;;;;;;4.96;85.61;98835.09;6247626;28;20183;-72
2021/10/09 05:15:52;;;;;;;15.10;9.00;;;;;;;4.98;85.26;98841.97;6266282;28;20265;-72
2021/10/09 05:18:56;;;;;;;22.73;9.90;;;;;;;4.98;85.45;98843.72;6263321;28;20207;-72
2021/10/09 05:21:58;;;;;;;11.53;8.67;;;;;;;4.96;84.91;98840.31;6263284;28;20206;-72
2021/10/09 05:25:02;;;;;;;15.67;9.43;;;;;;;4.93;84.54;98845.66;6267324;28;20202;-72
2021/10/09 05:31:12;;;;;;;10.50;7.97;;;;;;;4.88;84.82;98855.47;6266992;28;20206;-72
2021/10/09 05:34:17;;;;;;;14.13;8.77;;;;;;;4.83;85.53;98855.63;6267019;28;20289;-72
2021/10/09 05:37:21;;;;;;;15.60;9.70;;;;;;;4.82;85.46;98857.38;6269526;28;20212;-72
2021/10/09 05:40:23;;;;;;;12.70;7.90;;;;;;;4.84;85.54;98862.56;6272165;28;20195;-72
2021/10/09 05:43:27;;;;;;;13.77;8.97;;;;;;;4.91;85.02;98865.78;6271522;28;20670;-72
2021/10/09 05:46:30;;;;;;;11.07;8.50;;;;;;;4.96;85.19;98874.31;6273213;28;20744;-72
2021/10/09 05:49:32;;;;;;;13.87;8.50;;;;;;;4.99;84.84;98872.41;6271738;28;20210;-72
2021/10/09 05:52:43;;;;;;;11.23;8.60;;;;;;;5.05;85.32;98872.19;6270876;28;20217;-72
2021/10/09 05:55:53;;;;;;;13.93;8.20;;;;;;;5.15;85.18;98870.94;6271002;28;20231;-72
2021/10/09 06:32:23;;;;;;;9.73;7.43;;;;;;;6.01;83.67;98893.63;6267414;28;20205;-72
2021/10/09 07:02:19;;;;;;;18.90;12.93;;;;;;;7.16;81.68;98919.91;6252473;28;20381;-72
2021/10/09 07:05:22;;;;;;;13.77;8.90;;;;;;;7.28;81.42;98926.38;6249347;28;20199;-73
2021/10/09 07:08:38;;;;;;;33.73;17.93;;;;;;;7.38;81.46;98928.50;6278155;28;20245;-73
2021/10/09 07:11:56;;;;;;;17.83;11.57;;;;;;;7.49;81.05;98934.97;6270842;28;20187;-73
2021/10/09 07:14:58;;;;;;;17.73;11.10;;;;;;;7.52;81.04;98934.84;6256638;28;20578;-73
2021/10/09 07:18:00;;;;;;;21.10;11.63;;;;;;;7.51;81.05;98928.75;6263690;28;20198;-73
2021/10/09 07:21:03;;;;;;;17.93;11.17;;;;;;;7.53;81.40;98928.66;6260259;28;20247;-73
2021/10/09 07:24:05;;;;;;;15.87;9.90;;;;;;;7.56;81.10;98925.91;6246119;28;20211;-73
2021/10/09 07:27:07;;;;;;;14.77;9.10;;;;;;;7.50;81.44;98927.03;6265358;28;20607;-73
2021/10/09 07:30:09;;;;;;;13.93;9.23;;;;;;;7.45;80.75;98934.28;6259430;28;20190;-73
2021/10/09 07:33:11;;;;;;;14.50;9.17;;;;;;;7.48;81.20;98943.81;6249865;28;20218;-73
2021/10/09 07:36:16;;;;;;;14.07;9.00;;;;;;;7.55;80.63;98939.97;6265617;28;20199;-71
2021/10/09 07:39:18;;;;;;;12.50;9.17;;;;;;;7.61;80.74;98937.88;6257357;28;20666;-73
2021/10/09 07:42:21;;;;;;;13.23;10.20;;;;;;;7.71;80.27;98943.53;6272205;28;20205;-74
2021/10/09 07:45:23;;;;;;;16.60;9.97;;;;;;;7.78;79.91;98940.56;6254478;28;20191;-73
2021/10/09 07:48:25;;;;;;;17.27;12.03;;;;;;;7.89;79.68;98950.53;6257879;28;20226;-73
2021/10/09 07:51:27;;;;;;;17.87;11.57;;;;;;;8.04;79.42;98941.03;6269852;28;20192;-73
2021/10/09 07:54:29;;;;;;;17.83;12.23;;;;;;;8.24;77.98;98938.25;6243868;28;20199;-73
2021/10/09 07:57:31;;;;;;;15.90;10.93;;;;;;;8.24;77.16;98943.53;6254081;28;20210;-73
2021/10/09 08:00:33;;;;;;;17.70;11.73;;;;;;;8.19;77.06;98945.50;6249082;28;20863;-73
2021/10/09 08:03:35;;;;;;;19.17;10.93;;;;;;;8.36;77.25;98947.34;6253089;28;20239;-73
2021/10/09 08:06:36;;;;;;;20.47;12.67;;;;;;;8.42;76.16;98945.25;6249906;28;20205;-74
2021/10/09 08:09:38;;;;;;;15.73;10.50;;;;;;;8.70;73.30;98941.16;6258603;28;20234;-73
2021/10/09 08:12:40;;;;;;;14.90;11.30;;;;;;;9.17;72.75;98950.03;6264829;28;20199;-73
2021/10/09 08:15:44;;;;;;;16.63;9.53;;;;;;;9.53;66.42;98955.06;6251844;28;20200;-73
2021/10/09 08:18:46;;;;;;;16.80;10.37;;;;;;;9.49;67.28;98956.16;6251440;28;20183;-73
2021/10/09 08:21:48;;;;;;;15.80;9.83;;;;;;;9.37;69.96;98959.50;6256501;28;20181;-73
2021/10/09 08:25:23;;;;;;;14.73;7.43;;;;;;;9.53;64.59;98959.47;6267604;28;20747;-73
2021/10/09 08:41:41;;;;;;;12.70;6.83;;;;;;;10.80;61.36;98945.03;6262124;28;20731;-73
2021/10/09 08:44:42;;;;;;;12.77;6.67;;;;;;;10.78;59.46;98946.94;6248387;28;20297;-72
2021/10/09 08:47:45;;;;;;;9.97;6.80;;;;;;;10.95;57.24;98946.75;6253809;28;20202;-72
2021/10/09 08:50:47;;;;;;;16.90;7.57;;;;;;;11.26;56.46;98943.91;6257241;28;20199;-73
2021/10/09 08:53:52;;;;;;;11.23;6.53;;;;;;;11.40;52.90;98945.66;6264180;28;20198;-72
2021/10/09 08:56:54;;;;;;;15.83;6.93;;;;;;;11.12;48.97;98943.03;6257666;28;20196;-72
2021/10/09 09:03:21;;;;;;;15.00;6.90;;;;;;;11.52;50.44;98928.16;6244881;28;20226;-72
2021/10/09 09:07:20;;;;;;;8.27;5.80;;;;;;;12.04;52.88;98941.53;6257969;28;20422;-71
2021/10/09 09:27:19;;;;;;;10.67;6.33;;;;;;;13.41;50.00;98927.59;6260470;28;20312;-69
2021/10/09 09:40:42;;;;;;;15.17;7.03;;;;;;;13.49;42.31;98917.25;6211210;28;20353;-71
2021/10/09 09:43:44;;;;;;;10.43;5.57;;;;;;;12.96;44.88;98929.03;6189602;28;20327;-72
2021/10/09 09:47:07;;;;;;;9.77;6.07;;;;;;;13.03;44.83;98919.69;6190173;28;20287;-72
2021/10/09 09:50:29;;;;;;;9.17;6.30;;;;;;;13.29;42.51;98920.50;6184582;28;20263;-71
2021/10/09 09:53:33;;;;;;;10.23;6.30;;;;;;;13.34;43.64;98920.19;6193966;28;20204;-73
2021/10/09 09:56:36;;;;;;;14.03;7.07;;;;;;;13.19;43.64;98915.00;6188031;28;20219;-70
2021/10/09 09:59:41;;;;;;;8.67;6.00;;;;;;;13.44;44.55;98910.63;6193322;28;20608;-70
2021/10/09 10:02:49;;;;;;;10.03;5.60;;;;;;;13.99;46.07;98915.34;6185601;28;20224;-70
2021/10/09 10:05:51;;;;;;;13.23;6.73;;;;;;;13.88;42.89;98912.66;6190323;28;20220;-69
2021/10/09 10:08:57;;;;;;;9.83;5.77;;;;;;;14.25;43.98;98903.66;6189102;28;20235;-70
2021/10/09 10:12:06;;;;;;;15.53;6.70;;;;;;;13.92;41.51;98916.78;6200149;28;20558;-70
2021/10/09 10:15:10;;;;;;;13.60;6.87;;;;;;;13.55;40.65;98910.69;6194471;28;20208;-71
2021/10/09 10:18:33;;;;;;;8.37;5.33;;;;;;;13.86;42.69;98910.13;6246355;28;20282;-70
2021/10/09 10:21:38;;;;;;;12.83;5.97;;;;;;;14.06;40.14;98913.13;6259791;28;20564;-70
2021/10/09 10:24:48;;;;;;;10.10;5.73;;;;;;;14.18;41.42;98915.66;6260775;28;20221;-71
2021/10/09 10:28:07;;;;;;;8.87;5.20;;;;;;;14.12;39.15;98920.59;6261584;28;20201;-70
2021/10/09 10:31:09;;;;;;;11.83;6.13;;;;;;;14.56;38.02;98910.16;6259818;28;20231;-70
2021/10/09 10:34:31;;;;;;;12.87;6.53;;;;;;;14.08;40.51;98916.47;6257629;28;20191;-71
2021/10/09 10:37:35;;;;;;;10.03;6.03;;;;;;;14.08;39.13;98912.00;6252730;28;20198;-69
2021/10/09 10:40:46;;;;;;;11.07;6.00;;;;;;;14.31;39.36;98913.78;6248289;28;20192;-71
2021/10/09 10:43:52;;;;;;;11.67;6.13;;;;;;;13.90;41.19;98913.38;6275300;28;20623;-71
2021/10/09 10:46:56;;;;;;;14.73;6.17;;;;;;;14.32;39.72;98907.53;6262825;28;20218;-71
2021/10/09 10:50:07;;;;;;;14.67;6.20;;;;;;;14.16;38.13;98898.19;6247984;28;20255;-71
2021/10/09 10:53:14;;;;;;;11.40;6.03;;;;;;;13.99;39.08;98894.97;6254911;28;20243;-71
2021/10/09 10:56:16;;;;;;;14.97;6.07;;;;;;;13.89;38.95;98904.59;6253710;28;20683;-71
2021/10/09 10:59:33;;;;;;;11.03;6.40;;;;;;;14.09;37.65;98894.28;6267151;28;20291;-71
2021/10/09 11:02:44;;;;;;;7.73;5.73;;;;;;;14.16;38.19;98890.22;6277469;28;20227;-71
2021/10/09 11:05:46;;;;;;;10.63;5.73;;;;;;;14.50;38.57;98896.47;6249580;28;20220;-71
2021/10/09 11:08:49;;;;;;;7.93;5.40;;;;;;;15.34;38.19;98886.25;6251103;28;20239;-71
2021/10/09 11:11:52;;;;;;;12.93;6.00;;;;;;;15.39;35.72;98894.69;6259577;28;20682;-71
2021/10/09 11:15:15;;;;;;;11.67;5.30;;;;;;;15.51;36.62;98883.06;6258930;28;20652;-71
2021/10/09 11:18:17;;;;;;;13.97;5.53;;;;;;;15.97;35.37;98881.13;6255031;28;20216;-71
2021/10/09 11:21:20;;;;;;;8.97;5.10;;;;;;;16.20;37.11;98878.22;6255175;28;20571;-71
2021/10/09 11:24:38;;;;;;;10.30;5.70;;;;;;;16.68;37.45;98877.72;6250277;28;20227;-71
2021/10/09 11:27:40;;;;;;;14.00;6.30;;;;;;;16.41;35.79;98872.06;6266565;28;20219;-71
2021/10/09 11:30:42;;;;;;;8.83;5.37;;;;;;;16.45;36.28;98868.16;6268677;28;20734;-71
2021/10/09 11:33:45;;;;;;;15.50;6.30;;;;;;;16.55;35.78;98872.56;6246114;28;20629;-71
2021/10/09 11:36:47;;;;;;;9.40;5.80;;;;;;;16.37;34.42;98873.31;6255722;28;20199;-71
2021/10/09 11:39:52;;;;;;;12.70;6.83;;;;;;;15.84;34.47;98868.00;6249512;28;20203;-71
2021/10/09 11:43:17;;;;;;;10.83;6.40;;;;;;;16.10;36.03;98874.63;6253067;28;20187;-71
2021/10/09 11:46:43;;;;;;;12.80;7.20;;;;;;;15.86;35.42;98866.06;6263840;28;20215;-71
2021/10/09 11:53:44;;;;;;;11.07;5.97;;;;;;;16.00;36.71;98856.91;6270371;28;20282;-71
2021/10/09 11:56:46;;;;;;;13.07;6.83;;;;;;;15.41;35.80;98854.66;6257991;28;20409;-71
2021/10/09 11:59:48;;;;;;;12.20;6.37;;;;;;;15.51;36.93;98858.25;6260193;28;20651;-72
2021/10/09 12:02:50;;;;;;;12.17;6.63;;;;;;;16.41;34.91;98853.41;6257341;28;20199;-70
2021/10/09 12:05:54;;;;;;;12.30;6.30;;;;;;;16.88;35.63;98851.97;6257827;28;20214;-69
2021/10/09 12:09:02;;;;;;;12.50;6.27;;;;;;;16.77;35.97;98841.44;6260448;28;20310;-71
2021/10/09 12:12:11;;;;;;;14.33;6.50;;;;;;;16.58;35.11;98842.97;6260602;28;20329;-70
2021/10/09 12:15:33;;;;;;;9.03;6.53;;;;;;;16.37;34.92;98842.16;6260063;28;20187;-71
2021/10/09 12:18:54;;;;;;;14.43;6.23;;;;;;;16.11;35.64;98844.38;6252947;28;20192;-72
2021/10/09 12:21:57;;;;;;;16.33;6.93;;;;;;;16.11;34.40;98838.19;6275383;28;20196;-69
2021/10/09 12:24:59;;;;;;;10.20;5.93;;;;;;;16.67;35.20;98830.69;6259894;28;20256;-69
2021/10/09 12:28:02;;;;;;;13.77;6.17;;;;;;;16.91;33.06;98839.25;6264662;28;20735;-70
2021/10/09 12:31:26;;;;;;;12.07;6.10;;;;;;;17.01;33.49;98833.94;6264524;28;20349;-69
2021/10/09 12:34:30;;;;;;;9.43;5.50;;;;;;;17.19;33.22;98837.63;6263014;28;20519;-71
2021/10/09 12:37:34;;;;;;;13.53;5.93;;;;;;;17.04;33.08;98831.00;6265705;28;20207;-69
2021/10/09 12:40:44;;;;;;;12.50;6.07;;;;;;;17.43;32.57;98826.59;6268940;28;20772;-68
2021/10/09 12:43:46;;;;;;;9.07;5.40;;;;;;;17.59;32.71;98826.06;6267126;28;20847;-70
2021/10/09 12:46:49;;;;;;;11.80;6.67;;;;;;;17.47;33.92;98828.00;6265274;28;20194;-68
2021/10/09 12:49:51;;;;;;;11.97;5.80;;;;;;;17.77;34.64;98824.41;6265431;28;20703;-69
2021/10/09 12:52:53;;;;;;;8.33;5.60;;;;;;;17.68;33.89;98819.91;6262642;28;20191;-69
2021/10/09 12:55:56;;;;;;;10.63;6.07;;;;;;;17.75;33.07;98820.22;6265151;28;20276;-69
2021/10/09 12:58:58;;;;;;;9.90;6.10;;;;;;;17.47;31.13;98817.31;6262721;28;20199;-69
2021/10/09 13:02:04;;;;;;;11.67;6.37;;;;;;;17.51;32.20;98823.22;6263068;28;20214;-68
2021/10/09 13:05:06;;;;;;;12.90;5.97;;;;;;;17.98;31.91;98817.09;6275023;28;20217;-70
2021/10/09 13:08:08;;;;;;;13.40;6.53;;;;;;;18.72;31.39;98817.25;6265573;28;20357;-70
2021/10/09 13:11:11;;;;;;;10.17;5.67;;;;;;;18.90;31.09;98806.59;6266878;28;20639;-69
2021/10/09 13:14:12;;;;;;;12.37;6.03;;;;;;;18.50;30.64;98819.38;6265698;28;20183;-72
2021/10/09 13:17:15;;;;;;;10.07;5.40;;;;;;;18.14;31.67;98813.84;6257938;28;20191;-69
2021/10/09 13:20:19;;;;;;;12.20;6.57;;;;;;;18.34;30.90;98812.84;6264214;28;20195;-71
2021/10/09 13:23:21;;;;;;;11.47;5.57;;;;;;;19.12;31.46;98803.53;6262320;28;20569;-71
2021/10/09 13:26:22;;;;;;;10.47;5.80;;;;;;;20.47;28.30;98799.78;6261073;28;20283;-70
2021/10/09 13:29:25;;;;;;;13.77;6.00;;;;;;;21.14;27.13;98799.94;6260590;28;20194;-69
2021/10/09 13:32:27;;;;;;;11.13;6.43;;;;;;;19.61;28.72;98809.44;6260347;28;20551;-69
2021/10/09 13:35:30;;;;;;;8.37;6.50;;;;;;;18.61;30.35;98811.22;6261250;28;20213;-70
2021/10/09 13:38:33;;;;;;;11.17;6.37;;;;;;;20.01;27.65;98808.13;6262778;28;20210;-70
2021/10/09 13:41:35;;;;;;;12.50;7.57;;;;;;;20.23;27.96;98803.13;6262904;28;20202;-70
2021/10/09 13:44:37;;;;;;;11.63;6.80;;;;;;;21.44;27.15;98799.41;6260260;28;20199;-70
2021/10/09 13:47:40;;;;;;;14.17;7.23;;;;;;;21.60;27.32;98793.19;6263705;28;20199;-70
2021/10/09 13:50:49;;;;;;;12.33;7.00;;;;;;;21.56;27.07;98794.56;6263630;28;20565;-71
2021/10/09 13:53:51;;;;;;;10.03;6.23;;;;;;;19.88;31.39;98811.19;6259973;28;20198;-70
2021/10/09 13:56:53;;;;;;;10.90;6.03;;;;;;;18.05;33.55;98809.38;6262614;28;20198;-72
2021/10/09 13:59:55;;;;;;;14.97;7.43;;;;;;;16.90;35.08;98810.03;6268349;28;20616;-72
2021/10/09 14:02:58;;;;;;;10.93;6.53;;;;;;;15.84;38.00;98817.41;6264248;28;20202;-71
2021/10/09 14:06:02;;;;;;;12.07;6.90;;;;;;;15.62;38.09;98812.16;6266708;28;20226;-71
2021/10/09 14:09:04;;;;;;;12.80;6.67;;;;;;;15.49;37.93;98810.50;6263326;28;20612;-71
2021/10/09 14:12:06;;;;;;;12.30;6.47;;;;;;;15.01;38.50;98803.84;6268753;28;20618;-71
2021/10/09 14:15:09;;;;;;;12.20;5.90;;;;;;;14.38;41.58;98811.44;6266142;28;20257;-71
2021/10/09 14:18:13;;;;;;;15.10;7.20;;;;;;;13.97;41.26;98800.53;6269527;28;20667;-71
2021/10/09 14:21:15;;;;;;;13.80;7.10;;;;;;;13.56;42.53;98801.84;6264378;28;20203;-71
2021/10/09 14:24:18;;;;;;;10.13;5.83;;;;;;;13.42;42.96;98795.84;6263505;28;20207;-71
2021/10/09 14:27:23;;;;;;;8.63;5.63;;;;;;;13.41;45.00;98808.25;6262730;28;20192;-71
2021/10/09 14:30:25;;;;;;;10.17;5.70;;;;;;;13.30;46.60;98805.53;6253251;28;20303;-73
2021/10/09 14:33:27;;;;;;;13.77;5.47;;;;;;;13.16;48.10;98805.72;6255607;28;20195;-72
2021/10/09 14:36:29;;;;;;;12.47;5.77;;;;;;;13.14;47.15;98802.34;6258626;28;20188;-72
2021/10/09 14:39:31;;;;;;;10.03;5.87;;;;;;;13.10;49.33;98804.31;6263371;28;20285;-72
2021/10/09 14:42:33;;;;;;;9.97;6.20;;;;;;;13.04;49.87;98795.97;6264157;28;20261;-72
2021/10/09 14:45:35;;;;;;;9.47;5.87;;;;;;;12.83;51.03;98801.84;6270150;28;20219;-72
2021/10/09 14:48:39;;;;;;;11.40;6.50;;;;;;;12.57;51.02;98795.78;6260034;28;20192;-72
2021/10/09 14:51:48;;;;;;;10.10;5.93;;;;;;;12.20;51.78;98794.84;6260690;28;20196;-72
2021/10/09 15:18:20;;;;;;;8.50;4.90;;;;;;;11.51;56.75;98818.91;6265549;28;20245;-72
2021/10/09 15:21:22;;;;;;;9.90;5.47;;;;;;;11.33;57.56;98820.13;6263276;28;20190;-72
2021/10/09 15:24:24;;;;;;;7.13;4.97;;;;;;;11.09;58.63;98818.13;6262766;28;20580;-72
2021/10/09 15:27:28;;;;;;;10.00;5.60;;;;;;;10.97;59.04;98824.22;6279028;28;20680;-72
2021/10/09 15:30:30;;;;;;;6.20;4.70;;;;;;;10.91;59.14;98821.94;6265948;28;20566;-72
2021/10/09 15:33:32;;;;;;;4.90;4.27;;;;;;;10.94;59.17;98821.75;6276624;28;20202;-72
2021/10/09 15:36:34;;;;;;;8.37;4.57;;;;;;;10.91;59.39;98821.09;6260989;28;20194;-72
2021/10/09 15:39:37;;;;;;;5.73;4.17;;;;;;;10.78;59.60;98830.75;6262607;28;20197;-72
2021/10/09 15:42:39;;;;;;;6.37;4.30;;;;;;;10.63;60.27;98830.75;6267734;28;20196;-72
2021/10/09 15:45:41;;;;;;;6.27;4.63;;;;;;;10.46;61.13;98822.19;6264749;28;20547;-72
2021/10/09 15:48:43;;;;;;;9.37;5.70;;;;;;;10.29;61.41;98824.03;6268382;28;20205;-72
2021/10/09 15:51:45;;;;;;;6.83;4.80;;;;;;;10.15;61.62;98821.38;6247844;28;20448;-72
2021/10/09 15:54:47;;;;;;;6.87;5.23;;;;;;;9.88;62.65;98829.13;6261249;28;20292;-72
2021/10/09 15:57:49;;;;;;;9.13;5.20;;;;;;;9.68;63.41;98831.25;6247456;28;20350;-72
2021/10/09 16:00:51;;;;;;;8.87;4.97;;;;;;;9.59;63.42;98829.97;6261800;28;20220;-72
2021/10/09 16:03:55;;;;;;;7.73;4.57;;;;;;;9.59;63.49;98824.72;6257944;28;20202;-72
2021/10/09 16:06:57;;;;;;;7.27;4.40;;;;;;;9.55;63.78;98834.59;6264195;28;20550;-72
2021/10/09 16:09:59;;;;;;;7.20;4.77;;;;;;;9.60;64.19;98831.69;6266054;28;20566;-72
2021/10/09 16:13:02;;;;;;;6.87;4.80;;;;;;;9.59;64.59;98830.84;6265785;28;20191;-72
2021/10/09 16:16:05;;;;;;;6.60;4.70;;;;;;;9.46;65.42;98842.19;6261340;28;20716;-72
2021/10/09 16:19:07;;;;;;;6.17;4.30;;;;;;;9.30;65.33;98843.97;6272942;28;20195;-72
2021/10/09 16:22:09;;;;;;;7.87;5.40;;;;;;;9.19;65.41;98832.25;6259964;28;20187;-72
2021/10/09 16:25:12;;;;;;;9.53;4.77;;;;;;;9.12;66.11;98836.19;6262128;28;20207;-72
2021/10/09 16:28:14;;;;;;;8.73;5.00;;;;;;;9.04;66.50;98840.19;6259234;28;20188;-72
2021/10/09 16:31:16;;;;;;;9.07;5.90;;;;;;;8.96;66.64;98842.41;6266941;28;20233;-72
2021/10/09 16:34:18;;;;;;;11.30;5.40;;;;;;;8.88;67.24;98846.28;6263126;28;20187;-72
2021/10/09 16:37:20;;;;;;;9.47;5.23;;;;;;;8.82;67.63;98854.50;6262023;28;20183;-72
2021/10/09 16:40:22;;;;;;;7.60;5.07;;;;;;;8.69;68.24;98855.25;6263693;28;20615;-72
2021/10/09 16:43:25;;;;;;;8.17;4.67;;;;;;;8.53;67.71;98849.97;6264559;28;20201;-72
2021/10/09 16:46:27;;;;;;;8.80;5.10;;;;;;;8.45;68.76;98854.81;6266472;28;20205;-72
2021/10/09 16:49:29;;;;;;;8.00;5.33;;;;;;;8.29;68.48;98853.84;6262304;28;20194;-72
2021/10/09 16:52:31;;;;;;;8.37;5.57;;;;;;;8.17;69.06;98852.72;6261285;28;20186;-72
2021/10/09 16:55:33;;;;;;;9.03;5.93;;;;;;;8.04;69.41;98857.75;6258182;28;20566;-72